Time;durP1;ratioP1;P1;durP2;ratioP2;P2;SDS_P1;SDS_P2;PMS_P1;PMS_P2;Temp;Humidity;BMP_temperature;BMP_pressure;BME280_temperature;BME280_humidity;BME280_pressure;Samples;Min_cycle;Max_cycle;Signal;HPM_P1;HPM_P2
2022/08/03 00:02:15;;;;;;;5.82;2.10;;;21.80;83.60;;;;;;5017978;28;20060;-71
2022/08/03 00:04:41;;;;;;;4.88;1.58;;;21.80;83.90;;;;;;5030204;28;20455;-65
2022/08/03 00:07:07;;;;;;;6.15;1.60;;;21.70;84.10;;;;;;5014442;28;20038;-61
2022/08/03 00:09:32;;;;;;;4.93;1.70;;;21.70;84.50;;;;;;5021119;28;20029;-66
2022/08/03 00:11:58;;;;;;;2.45;1.35;;;21.60;84.70;;;;;;5053872;28;20074;-66
2022/08/03 00:14:23;;;;;;;3.72;1.60;;;21.60;84.80;;;;;;5054351;28;20020;-68
2022/08/03 00:16:49;;;;;;;4.22;1.90;;;21.50;84.90;;;;;;5053272;28;20025;-66
2022/08/03 00:19:15;;;;;;;4.72;1.90;;;21.50;85.30;;;;;;5054054;28;20036;-66
2022/08/03 00:21:40;;;;;;;6.45;2.30;;;21.40;85.80;;;;;;5054322;28;20032;-69
2022/08/03 00:24:06;;;;;;;5.95;2.80;;;21.40;85.90;;;;;;5053065;28;20887;-69
2022/08/03 00:26:31;;;;;;;9.15;3.13;;;21.40;86.00;;;;;;5054181;28;20025;-69
2022/08/03 00:28:57;;;;;;;8.18;3.90;;;21.40;86.00;;;;;;5053545;28;20028;-67
2022/08/03 00:31:23;;;;;;;5.28;2.90;;;21.40;86.00;;;;;;5053109;28;20025;-70
2022/08/03 00:33:49;;;;;;;6.10;2.90;;;21.30;86.10;;;;;;5053117;28;20060;-67
2022/08/03 00:36:14;;;;;;;9.25;2.92;;;21.30;86.40;;;;;;5053911;28;20102;-71
2022/08/03 00:38:40;;;;;;;8.02;3.10;;;21.20;86.50;;;;;;5053338;28;20657;-63
2022/08/03 00:41:05;;;;;;;7.05;3.08;;;21.20;86.80;;;;;;5053430;28;20033;-65
2022/08/03 00:43:31;;;;;;;7.70;3.20;;;21.10;87.20;;;;;;5053434;28;20060;-61
2022/08/03 00:45:57;;;;;;;5.68;3.10;;;20.90;87.80;;;;;;5052532;28;20104;-61
2022/08/03 00:48:22;;;;;;;6.18;3.22;;;20.70;88.10;;;;;;5053576;28;20377;-61
2022/08/03 00:50:48;;;;;;;5.78;2.70;;;20.60;88.30;;;;;;5035148;28;20021;-61
2022/08/03 00:53:14;;;;;;;5.93;2.92;;;20.60;88.40;;;;;;5052789;28;20025;-63
2022/08/03 00:55:40;;;;;;;5.57;2.83;;;20.50;88.60;;;;;;5053419;28;20112;-63
2022/08/03 00:58:07;;;;;;;5.05;2.40;;;20.50;88.70;;;;;;5034994;28;20047;-64
2022/08/03 01:00:35;;;;;;;7.05;2.75;;;20.50;88.70;;;;;;5034490;28;20431;-61
2022/08/03 01:03:01;;;;;;;3.58;2.30;;;20.50;88.70;;;;;;5052480;28;20033;-61
2022/08/03 01:05:27;;;;;;;4.90;2.20;;;20.50;88.70;;;;;;5052681;28;20029;-61
2022/08/03 01:08:02;;;;;;;4.55;2.40;;;20.40;88.90;;;;;;5052865;28;20021;-62
2022/08/03 01:10:33;;;;;;;6.45;2.78;;;20.40;88.90;;;;;;5053082;28;20031;-63
2022/08/03 01:13:23;;;;;;;5.80;2.53;;;20.40;89.00;;;;;;5051967;28;20029;-60
2022/08/03 01:16:01;;;;;;;5.97;2.63;;;20.40;89.20;;;;;;5052627;28;20025;-61
2022/08/03 01:18:34;;;;;;;5.03;2.30;;;20.30;89.30;;;;;;5052971;28;20029;-64
2022/08/03 01:21:06;;;;;;;5.85;2.97;;;20.30;89.60;;;;;;5051768;28;20078;-61
2022/08/03 01:23:43;;;;;;;7.32;3.00;;;20.30;89.80;;;;;;5052640;28;20119;-63
2022/08/03 01:26:33;;;;;;;6.50;3.00;;;20.20;90.00;;;;;;5052593;28;20029;-61
2022/08/03 01:29:20;;;;;;;13.35;3.80;;;20.20;90.10;;;;;;5052507;28;20024;-61
2022/08/03 01:31:57;;;;;;;5.15;3.15;;;20.20;90.20;;;;;;5052800;28;20025;-61
2022/08/03 01:34:28;;;;;;;5.78;2.97;;;20.20;90.20;;;;;;5051653;28;20045;-60
2022/08/03 01:36:56;;;;;;;4.60;2.65;;;20.20;90.40;;;;;;5052232;28;20033;-61
2022/08/03 01:39:24;;;;;;;5.40;2.22;;;20.20;90.50;;;;;;5034577;28;20025;-61
2022/08/03 01:41:59;;;;;;;5.25;2.78;;;20.20;90.50;;;;;;5051376;28;20044;-62
2022/08/03 01:44:29;;;;;;;4.10;2.15;;;20.10;90.60;;;;;;5052647;28;20033;-61
2022/08/03 01:46:58;;;;;;;4.55;2.40;;;20.10;90.70;;;;;;5051945;28;20021;-61
2022/08/03 01:49:25;;;;;;;6.32;2.15;;;20.10;90.70;;;;;;5051701;28;20021;-61
2022/08/03 01:51:52;;;;;;;3.95;1.63;;;20.10;90.80;;;;;;5051919;28;20029;-62
2022/08/03 01:54:20;;;;;;;5.78;1.90;;;20.10;90.90;;;;;;5052301;28;20025;-61
2022/08/03 01:56:47;;;;;;;7.20;1.80;;;20.20;90.90;;;;;;5051464;28;20060;-60
2022/08/03 01:59:16;;;;;;;6.22;1.98;;;20.10;90.90;;;;;;5034127;28;20036;-62
2022/08/03 02:01:42;;;;;;;4.30;1.95;;;20.10;90.90;;;;;;5051322;28;20013;-60
2022/08/03 02:04:11;;;;;;;6.47;2.00;;;20.10;91.00;;;;;;5033635;28;20060;-60
2022/08/03 02:06:38;;;;;;;3.83;1.83;;;20.10;91.10;;;;;;5051957;28;20147;-60
2022/08/03 02:09:05;;;;;;;4.30;1.77;;;20.10;91.20;;;;;;5051524;28;20101;-72
2022/08/03 02:11:33;;;;;;;2.03;1.25;;;20.10;91.40;;;;;;5051519;28;20078;-74
2022/08/03 02:14:01;;;;;;;3.78;1.73;;;20.10;91.40;;;;;;5051587;28;20025;-74
2022/08/03 02:16:29;;;;;;;3.58;1.70;;;20.10;91.50;;;;;;5051606;28;20139;-75
2022/08/03 02:18:56;;;;;;;6.43;1.60;;;20.20;91.50;;;;;;5033545;28;20029;-75
2022/08/03 02:21:22;;;;;;;5.43;1.65;;;20.20;91.60;;;;;;5052128;28;20013;-74
2022/08/03 02:23:48;;;;;;;5.95;1.67;;;20.10;91.60;;;;;;5050955;28;20146;-71
2022/08/03 02:26:16;;;;;;;5.32;1.80;;;20.10;91.60;;;;;;5051768;28;20095;-72
2022/08/03 02:28:46;;;;;;;4.15;1.55;;;20.10;91.50;;;;;;5051686;28;20062;-70
2022/08/03 02:31:20;;;;;;;3.88;1.77;;;20.10;91.60;;;;;;5051131;28;20411;-72
2022/08/03 02:34:01;;;;;;;5.93;2.03;;;20.00;91.60;;;;;;5051262;28;20041;-68
2022/08/03 02:36:29;;;;;;;4.77;1.63;;;20.00;91.70;;;;;;5051886;28;20036;-71
2022/08/03 02:38:58;;;;;;;8.23;2.30;;;19.90;91.70;;;;;;5050469;28;20113;-64
2022/08/03 02:41:29;;;;;;;7.63;2.83;;;19.90;91.70;;;;;;5051260;28;20033;-62
2022/08/03 02:43:58;;;;;;;8.90;3.90;;;19.90;91.80;;;;;;5050341;28;20379;-61
2022/08/03 02:46:30;;;;;;;10.85;6.22;;;19.80;91.80;;;;;;5051239;28;20028;-62
2022/08/03 02:48:56;;;;;;;9.02;6.07;;;19.70;91.80;;;;;;5050982;28;20021;-61
2022/08/03 02:51:23;;;;;;;12.48;8.15;;;19.70;91.90;;;;;;5050533;28;20100;-61
2022/08/03 02:53:50;;;;;;;13.38;8.73;;;19.60;92.00;;;;;;5050813;28;20029;-61
2022/08/03 02:56:17;;;;;;;11.82;6.80;;;19.50;92.10;;;;;;5051078;28;20025;-62
2022/08/03 02:58:44;;;;;;;6.55;4.13;;;19.50;92.10;;;;;;5032364;28;20432;-60
2022/08/03 03:01:11;;;;;;;6.85;3.42;;;19.50;92.20;;;;;;5050759;28;20071;-60
2022/08/03 03:03:39;;;;;;;6.60;2.90;;;19.40;92.30;;;;;;5033144;28;20473;-60
2022/08/03 03:06:05;;;;;;;7.75;2.85;;;19.40;92.30;;;;;;5050133;28;20095;-60
2022/08/03 03:08:31;;;;;;;5.65;2.42;;;19.40;92.40;;;;;;5050912;28;20415;-60
2022/08/03 03:10:59;;;;;;;5.97;2.35;;;19.30;92.40;;;;;;5050615;28;20017;-61
2022/08/03 03:13:27;;;;;;;3.60;2.33;;;19.30;92.50;;;;;;5050260;28;20135;-63
2022/08/03 03:15:55;;;;;;;6.07;3.20;;;19.30;92.60;;;;;;5036208;28;20029;-60
2022/08/03 03:18:21;;;;;;;9.27;4.75;;;19.20;92.70;;;;;;5030712;28;20052;-62
2022/08/03 03:20:49;;;;;;;9.57;4.97;;;19.20;92.80;;;;;;5030255;28;20029;-62
2022/08/03 03:23:15;;;;;;;8.30;4.13;;;19.20;92.90;;;;;;5029640;28;20030;-73
2022/08/03 03:25:42;;;;;;;7.40;4.35;;;19.20;92.90;;;;;;5031289;28;20057;-74
2022/08/03 03:28:10;;;;;;;7.55;3.75;;;19.10;92.90;;;;;;5013991;28;20037;-73
2022/08/03 03:30:36;;;;;;;12.40;5.15;;;19.10;92.90;;;;;;5034108;28;20080;-74
2022/08/03 03:33:02;;;;;;;13.63;7.43;;;19.10;93.00;;;;;;5034074;28;20029;-73
2022/08/03 03:35:27;;;;;;;13.20;9.20;;;19.10;93.10;;;;;;5032877;28;20103;-74
2022/08/03 03:37:53;;;;;;;23.10;16.60;;;19.00;93.10;;;;;;5015772;28;20490;-74
2022/08/03 03:40:20;;;;;;;20.67;15.07;;;19.00;93.10;;;;;;5016123;28;20342;-75
2022/08/03 03:42:46;;;;;;;22.42;15.65;;;19.00;93.30;;;;;;5034460;28;20076;-69
2022/08/03 03:45:12;;;;;;;13.07;9.90;;;19.00;93.40;;;;;;5035749;28;20080;-74
2022/08/03 03:47:38;;;;;;;23.25;16.13;;;19.00;93.40;;;;;;5032618;28;20022;-71
2022/08/03 03:50:05;;;;;;;27.48;19.55;;;19.00;93.40;;;;;;5034402;28;20428;-74
2022/08/03 03:52:32;;;;;;;30.95;22.17;;;19.10;93.70;;;;;;5035183;28;20037;-73
2022/08/03 03:54:58;;;;;;;29.38;20.67;;;19.00;93.80;;;;;;5033869;28;20459;-74
2022/08/03 03:57:24;;;;;;;31.60;23.05;;;19.10;94.00;;;;;;5032816;28;20037;-64
2022/08/03 03:59:50;;;;;;;29.70;21.65;;;19.00;94.00;;;;;;5030317;28;20021;-62
2022/08/03 04:02:16;;;;;;;29.73;21.25;;;19.00;94.10;;;;;;5029564;28;20044;-61
2022/08/03 04:13:04;;;;;;;17.17;14.45;;;18.90;94.10;;;;;;5030416;28;20390;-61
2022/08/03 04:15:31;;;;;;;21.92;15.52;;;18.90;94.10;;;;;;5029760;28;20025;-61
2022/08/03 04:17:58;;;;;;;17.92;11.65;;;18.90;94.20;;;;;;5029821;28;20033;-61
2022/08/03 04:20:28;;;;;;;14.35;10.90;;;18.90;94.20;;;;;;5030325;28;20045;-61
2022/08/03 04:22:58;;;;;;;14.02;9.65;;;19.00;94.30;;;;;;5029623;28;20104;-71
2022/08/03 04:25:27;;;;;;;18.63;12.37;;;19.00;94.30;;;;;;5030722;28;20018;-68
2022/08/03 04:27:57;;;;;;;14.20;9.23;;;19.00;94.30;;;;;;5030016;28;20021;-70
2022/08/03 04:30:25;;;;;;;15.68;10.40;;;19.00;94.20;;;;;;5030283;28;20036;-74
2022/08/03 04:32:51;;;;;;;16.48;11.25;;;19.10;94.30;;;;;;5030152;28;20030;-75
2022/08/03 04:35:18;;;;;;;18.30;10.13;;;19.10;94.40;;;;;;5019308;28;20133;-72
2022/08/03 04:37:47;;;;;;;10.38;5.10;;;19.10;94.80;;;;;;5033782;28;20042;-75
2022/08/03 04:40:18;;;;;;;8.18;5.00;;;19.10;94.80;;;;;;5045533;28;20029;-73
2022/08/03 04:42:45;;;;;;;5.70;3.72;;;19.20;94.80;;;;;;5019520;28;20108;-77
2022/08/03 04:45:13;;;;;;;6.13;3.22;;;19.20;94.80;;;;;;5016236;28;20024;-67
2022/08/03 04:47:39;;;;;;;6.82;2.83;;;19.20;94.90;;;;;;5001643;28;20267;-64
2022/08/03 04:50:06;;;;;;;5.32;2.42;;;19.30;94.90;;;;;;5032166;28;20025;-62
2022/08/03 04:52:33;;;;;;;10.15;3.30;;;19.40;94.80;;;;;;5031286;28;20095;-62
2022/08/03 04:54:59;;;;;;;6.80;2.60;;;19.40;94.70;;;;;;5022587;28;20029;-62
2022/08/03 04:57:25;;;;;;;7.68;2.70;;;19.50;94.70;;;;;;5033697;28;20507;-64
2022/08/03 04:59:53;;;;;;;6.57;2.75;;;19.60;94.60;;;;;;5032449;28;20091;-66
2022/08/03 05:02:20;;;;;;;7.07;3.33;;;19.60;94.50;;;;;;5033055;28;20563;-66
2022/08/03 05:04:46;;;;;;;8.88;3.10;;;19.70;94.70;;;;;;5031603;28;20143;-65
2022/08/03 05:07:12;;;;;;;5.78;2.80;;;19.70;94.60;;;;;;5030769;28;20100;-63
2022/08/03 05:09:38;;;;;;;5.93;2.80;;;19.80;94.50;;;;;;5031472;28;20097;-61
2022/08/03 05:12:05;;;;;;;6.32;3.08;;;19.80;94.40;;;;;;5014434;28;20112;-62
2022/08/03 05:14:31;;;;;;;5.45;2.63;;;19.80;94.40;;;;;;5016059;28;20018;-61
2022/08/03 05:16:56;;;;;;;6.57;2.70;;;19.90;94.30;;;;;;5052522;28;20098;-63
2022/08/03 05:19:22;;;;;;;7.15;3.03;;;20.00;94.60;;;;;;5025894;28;20084;-62
2022/08/03 05:21:48;;;;;;;8.18;3.33;;;20.00;94.30;;;;;;5030123;28;20079;-61
2022/08/03 05:24:13;;;;;;;6.53;3.10;;;20.10;94.30;;;;;;4997064;28;20076;-64
2022/08/03 05:26:39;;;;;;;10.68;3.58;;;20.10;94.20;;;;;;5012551;28;20022;-61
2022/08/03 05:29:04;;;;;;;7.68;2.92;;;20.20;94.20;;;;;;5012764;28;20540;-61
2022/08/03 05:31:31;;;;;;;5.03;2.42;;;20.20;94.20;;;;;;5016274;28;20056;-64
2022/08/03 05:33:56;;;;;;;8.57;3.05;;;20.20;94.20;;;;;;5024023;28;20029;-61
2022/08/03 05:36:22;;;;;;;6.22;2.92;;;20.20;94.20;;;;;;5033492;28;20029;-63
2022/08/03 05:38:47;;;;;;;5.97;2.55;;;20.20;94.10;;;;;;5032897;28;20080;-61
2022/08/03 05:41:13;;;;;;;6.30;3.10;;;20.20;94.00;;;;;;5032145;28;20386;-61
2022/08/03 05:43:39;;;;;;;5.13;3.03;;;20.20;94.00;;;;;;5032423;28;20116;-61
2022/08/03 05:46:05;;;;;;;6.72;2.80;;;20.30;94.00;;;;;;5032174;28;20057;-61
2022/08/03 05:48:31;;;;;;;6.90;3.05;;;20.40;93.90;;;;;;5031193;28;20106;-61
2022/08/03 05:50:57;;;;;;;7.43;3.35;;;20.40;93.90;;;;;;5031166;28;20029;-60
2022/08/03 05:53:22;;;;;;;6.72;2.88;;;20.50;93.80;;;;;;5030243;28;20025;-61
2022/08/03 05:55:48;;;;;;;9.40;3.40;;;20.50;93.80;;;;;;5028662;28;20021;-61
2022/08/03 05:58:14;;;;;;;7.07;2.75;;;20.60;94.10;;;;;;5028461;28;20049;-64
2022/08/03 06:00:39;;;;;;;6.05;2.97;;;20.70;93.60;;;;;;5013066;28;20018;-61
2022/08/03 06:03:05;;;;;;;6.60;2.78;;;20.70;93.60;;;;;;5010290;28;20033;-64
2022/08/03 06:05:31;;;;;;;5.88;2.55;;;20.80;93.50;;;;;;5020100;28;20018;-62
2022/08/03 06:07:57;;;;;;;8.10;3.33;;;20.90;93.30;;;;;;5026139;28;20107;-72
2022/08/03 06:10:22;;;;;;;6.78;3.20;;;21.00;93.20;;;;;;5030031;28;20425;-66
2022/08/03 06:12:49;;;;;;;5.68;3.03;;;21.10;93.10;;;;;;5002623;28;20037;-71
2022/08/03 06:15:15;;;;;;;9.50;3.05;;;21.20;93.00;;;;;;5024512;28;20064;-69
2022/08/03 06:17:48;;;;;;;9.68;2.92;;;21.30;92.80;;;;;;5019150;28;20455;-70
2022/08/03 06:20:18;;;;;;;9.55;3.42;;;21.30;92.60;;;;;;5021619;28;20037;-70
2022/08/03 06:22:45;;;;;;;6.80;3.25;;;21.40;92.50;;;;;;5029286;28;20029;-67
2022/08/03 06:25:11;;;;;;;8.80;2.72;;;21.40;92.30;;;;;;5031410;28;20104;-61
2022/08/03 06:27:39;;;;;;;8.20;3.50;;;21.50;92.20;;;;;;5012982;28;20101;-59
2022/08/03 06:30:07;;;;;;;8.25;3.20;;;21.50;92.10;;;;;;5011177;28;20034;-62
2022/08/03 06:32:33;;;;;;;7.70;3.38;;;21.50;92.00;;;;;;5011904;28;20053;-61
2022/08/03 06:34:59;;;;;;;7.32;2.20;;;21.60;91.90;;;;;;5028444;28;20469;-62
2022/08/03 06:37:25;;;;;;;5.03;2.33;;;21.60;91.70;;;;;;5023884;28;20038;-71
2022/08/03 06:39:52;;;;;;;4.80;1.85;;;21.60;91.50;;;;;;5012538;28;20042;-74
2022/08/03 06:42:17;;;;;;;9.13;2.10;;;21.60;91.30;;;;;;5032044;28;20017;-73
2022/08/03 06:44:43;;;;;;;8.95;2.63;;;21.70;91.20;;;;;;5032314;28;20026;-76
2022/08/03 06:47:08;;;;;;;6.05;1.92;;;21.80;91.00;;;;;;5034036;28;20029;-76
2022/08/03 06:49:34;;;;;;;7.57;2.65;;;21.90;90.90;;;;;;5031933;28;20331;-78
2022/08/03 06:52:00;;;;;;;5.22;2.30;;;21.90;90.60;;;;;;5023849;28;20075;-76
2022/08/03 06:54:25;;;;;;;6.18;1.92;;;22.00;90.30;;;;;;5013917;28;20033;-73
2022/08/03 06:56:51;;;;;;;6.53;2.10;;;22.00;90.00;;;;;;5032333;28;20017;-70
2022/08/03 06:59:17;;;;;;;5.07;2.10;;;22.10;90.00;;;;;;5032697;28;20535;-72
2022/08/03 07:01:42;;;;;;;5.20;1.95;;;22.20;89.70;;;;;;5030496;28;20051;-73
2022/08/03 07:04:08;;;;;;;6.05;2.40;;;22.20;89.40;;;;;;5029050;28;20029;-73
2022/08/03 07:06:34;;;;;;;5.90;1.50;;;22.30;89.10;;;;;;5011566;28;20050;-72
2022/08/03 07:08:59;;;;;;;5.60;1.95;;;22.30;88.90;;;;;;5011131;28;20490;-71
2022/08/03 07:11:25;;;;;;;7.43;2.47;;;22.40;88.30;;;;;;5024360;28;20137;-66
2022/08/03 07:13:51;;;;;;;4.82;2.13;;;22.50;87.80;;;;;;5012943;28;20488;-65
2022/08/03 07:16:16;;;;;;;6.00;1.80;;;22.60;87.30;;;;;;5031807;28;20040;-66
2022/08/03 07:18:42;;;;;;;10.57;2.08;;;22.70;86.90;;;;;;5030203;28;20030;-69
2022/08/03 07:21:09;;;;;;;5.07;1.90;;;22.70;86.60;;;;;;5013128;28;20526;-62
2022/08/03 07:23:35;;;;;;;7.88;2.17;;;22.80;86.60;;;;;;5032082;28;20034;-69
2022/08/03 07:26:01;;;;;;;9.95;2.97;;;22.80;86.20;;;;;;5032492;28;20413;-64
2022/08/03 07:28:26;;;;;;;8.98;2.08;;;22.90;86.00;;;;;;5040589;28;20471;-65
2022/08/03 07:30:52;;;;;;;7.70;2.25;;;23.00;85.20;;;;;;5024073;28;20045;-65
2022/08/03 07:33:18;;;;;;;6.63;2.47;;;23.10;84.60;;;;;;5031073;28;20476;-70
2022/08/03 07:35:44;;;;;;;9.15;2.22;;;23.10;84.10;;;;;;5029852;28;20151;-65
2022/08/03 07:38:09;;;;;;;5.80;1.98;;;23.10;83.90;;;;;;5029556;28;20033;-64
2022/08/03 07:40:35;;;;;;;6.13;2.17;;;23.20;83.60;;;;;;5012654;28;20049;-70
2022/08/03 07:43:02;;;;;;;7.60;2.17;;;23.30;83.80;;;;;;5030545;28;20346;-70
2022/08/03 07:45:29;;;;;;;10.32;2.10;;;23.40;83.50;;;;;;5030940;28;20079;-68
2022/08/03 07:47:54;;;;;;;7.57;1.90;;;23.50;83.20;;;;;;5029863;28;20026;-63
2022/08/03 07:50:21;;;;;;;8.00;2.08;;;23.50;83.10;;;;;;5030728;28;20025;-64
2022/08/03 07:52:46;;;;;;;9.02;1.75;;;23.50;82.20;;;;;;5030336;28;20425;-64
2022/08/03 07:55:12;;;;;;;9.48;1.95;;;23.60;82.20;;;;;;5030416;28;20020;-71
2022/08/03 07:57:38;;;;;;;8.13;2.10;;;23.70;81.70;;;;;;5030514;28;20042;-67
2022/08/03 08:00:08;;;;;;;5.13;2.13;;;23.80;81.30;;;;;;5012935;28;20021;-67
2022/08/03 08:02:33;;;;;;;6.72;1.63;;;23.80;80.70;;;;;;5012203;28;20079;-64
2022/08/03 08:04:59;;;;;;;8.98;2.45;;;23.80;80.00;;;;;;5030270;28;20025;-63
2022/08/03 08:07:25;;;;;;;8.25;2.17;;;23.80;79.90;;;;;;5012419;28;20064;-69
2022/08/03 08:09:50;;;;;;;6.43;1.60;;;23.80;79.90;;;;;;5012415;28;20026;-67
2022/08/03 08:12:16;;;;;;;10.20;2.50;;;23.80;80.10;;;;;;5034344;28;20025;-68
2022/08/03 08:14:44;;;;;;;5.78;1.92;;;24.00;79.90;;;;;;5033704;28;20076;-68
2022/08/03 08:17:10;;;;;;;7.22;2.03;;;24.10;79.60;;;;;;5034140;28;20461;-68
2022/08/03 08:19:35;;;;;;;5.65;1.85;;;24.20;78.90;;;;;;5033979;28;20040;-67
2022/08/03 08:22:01;;;;;;;13.13;2.33;;;24.20;78.80;;;;;;5033674;28;20092;-70
2022/08/03 08:24:29;;;;;;;7.40;1.70;;;24.40;78.70;;;;;;5034659;28;20190;-75
2022/08/03 08:26:55;;;;;;;11.05;2.08;;;24.50;78.50;;;;;;5033953;28;20076;-71
2022/08/03 08:29:22;;;;;;;7.00;1.85;;;24.60;77.90;;;;;;5033637;28;20014;-70
2022/08/03 08:31:49;;;;;;;3.22;1.42;;;24.80;77.20;;;;;;5033694;28;20029;-68
2022/08/03 08:34:14;;;;;;;6.47;1.85;;;24.90;76.70;;;;;;5034038;28;20113;-62
2022/08/03 08:36:40;;;;;;;7.65;2.20;;;25.00;75.40;;;;;;5033107;28;20114;-61
2022/08/03 08:39:06;;;;;;;5.47;1.95;;;25.00;73.60;;;;;;5033507;28;20052;-62
2022/08/03 08:41:34;;;;;;;10.95;2.13;;;25.10;73.40;;;;;;5033884;28;20029;-62
2022/08/03 08:44:01;;;;;;;7.97;1.85;;;25.10;72.70;;;;;;5033064;28;20029;-62
2022/08/03 08:46:31;;;;;;;7.10;1.92;;;25.10;72.10;;;;;;5033934;28;20021;-61
2022/08/03 08:48:58;;;;;;;9.13;2.10;;;25.20;71.40;;;;;;5033183;28;20021;-62
2022/08/03 08:51:28;;;;;;;8.32;1.60;;;25.20;71.70;;;;;;5033000;28;20025;-65
2022/08/03 08:53:56;;;;;;;7.18;2.10;;;25.30;72.10;;;;;;5033157;28;20026;-74
2022/08/03 08:56:24;;;;;;;10.88;1.98;;;25.30;70.90;;;;;;5015896;28;20023;-71
2022/08/03 08:58:58;;;;;;;6.95;1.95;;;25.40;71.20;;;;;;5014671;28;20037;-73
2022/08/03 09:01:24;;;;;;;8.02;2.13;;;25.50;71.20;;;;;;5033619;28;20021;-74
2022/08/03 09:03:50;;;;;;;7.50;1.92;;;25.60;71.10;;;;;;5032695;28;20033;-72
2022/08/03 09:06:16;;;;;;;7.35;1.70;;;25.70;71.00;;;;;;5033682;28;20024;-74
2022/08/03 09:08:42;;;;;;;7.82;2.50;;;25.90;70.80;;;;;;5033710;28;20112;-75
2022/08/03 09:11:08;;;;;;;9.13;2.00;;;26.00;70.50;;;;;;5032493;28;20076;-75
2022/08/03 09:13:34;;;;;;;5.78;1.63;;;26.10;69.80;;;;;;5033290;28;20037;-74
2022/08/03 09:16:15;;;;;;;9.82;1.90;;;26.20;69.00;;;;;;5032864;28;20029;-75
2022/08/03 09:18:42;;;;;;;9.50;2.42;;;26.20;68.10;;;;;;5032547;28;20038;-74
2022/08/03 09:21:16;;;;;;;10.63;2.00;;;26.30;67.10;;;;;;5032999;28;20523;-72
2022/08/03 09:23:51;;;;;;;8.77;2.90;;;26.30;67.70;;;;;;5033310;28;20026;-74
2022/08/03 09:26:25;;;;;;;8.88;1.83;;;26.40;67.80;;;;;;5032750;28;20033;-75
2022/08/03 09:28:58;;;;;;;7.07;1.90;;;26.40;67.40;;;;;;5015000;28;20028;-64
2022/08/03 09:31:34;;;;;;;8.18;2.45;;;26.50;67.00;;;;;;5032961;28;20044;-64
2022/08/03 09:34:05;;;;;;;6.50;1.50;;;26.50;66.60;;;;;;5031605;28;20029;-69
2022/08/03 09:36:43;;;;;;;4.72;1.77;;;26.60;65.50;;;;;;5033046;28;20022;-67
2022/08/03 09:39:20;;;;;;;8.07;2.78;;;26.60;65.60;;;;;;5031646;28;20421;-66
2022/08/03 09:42:03;;;;;;;6.07;2.30;;;26.70;65.20;;;;;;5032512;28;20079;-62
2022/08/03 09:44:35;;;;;;;9.00;2.83;;;26.70;64.80;;;;;;5033174;28;20425;-71
2022/08/03 09:47:02;;;;;;;6.88;2.20;;;26.80;65.00;;;;;;5014009;28;20037;-71
2022/08/03 09:49:27;;;;;;;9.55;1.98;;;26.90;64.80;;;;;;5032581;28;20466;-69
2022/08/03 09:51:53;;;;;;;8.90;2.25;;;27.00;64.80;;;;;;5032300;28;20166;-69
2022/08/03 09:54:29;;;;;;;7.38;2.03;;;27.10;64.50;;;;;;5031877;28;20022;-62
2022/08/03 09:56:56;;;;;;;8.52;1.80;;;27.20;64.00;;;;;;5032204;28;20040;-65
2022/08/03 09:59:27;;;;;;;7.50;2.10;;;27.20;63.70;;;;;;5032546;28;20529;-72
2022/08/03 10:01:54;;;;;;;10.50;1.90;;;27.30;63.50;;;;;;5031548;28;20071;-68
2022/08/03 10:04:21;;;;;;;9.82;1.98;;;27.30;62.20;;;;;;5032315;28;20433;-64
2022/08/03 10:07:03;;;;;;;7.70;1.50;;;27.40;61.90;;;;;;5032074;28;20470;-66
2022/08/03 10:09:28;;;;;;;12.02;2.25;;;27.50;61.60;;;;;;5032270;28;20033;-72
2022/08/03 10:11:54;;;;;;;9.13;1.75;;;27.50;60.80;;;;;;5031588;28;20028;-74
2022/08/03 10:14:21;;;;;;;10.57;2.20;;;27.50;60.80;;;;;;5031604;28;20037;-74
2022/08/03 10:16:47;;;;;;;10.93;1.75;;;27.50;60.90;;;;;;5031611;28;20021;-67
2022/08/03 10:19:13;;;;;;;7.03;2.10;;;27.60;61.00;;;;;;5014245;28;20087;-75
2022/08/03 10:21:45;;;;;;;4.75;1.92;;;27.60;60.30;;;;;;5013560;28;20071;-68
2022/08/03 10:24:14;;;;;;;8.75;1.80;;;27.60;60.30;;;;;;5031982;28;20029;-68
2022/08/03 10:26:43;;;;;;;10.27;1.87;;;27.60;60.60;;;;;;5031779;28;20033;-74
2022/08/03 10:29:13;;;;;;;5.97;1.90;;;27.60;60.60;;;;;;5030903;28;20465;-72
2022/08/03 10:31:43;;;;;;;9.20;1.52;;;27.70;60.40;;;;;;5013824;28;20489;-62
2022/08/03 10:34:17;;;;;;;8.53;2.23;;;27.70;60.00;;;;;;5030475;28;20044;-62
2022/08/03 10:36:45;;;;;;;7.40;1.55;;;27.80;60.10;;;;;;5030938;28;20489;-62
2022/08/03 10:39:12;;;;;;;8.82;2.38;;;27.80;59.90;;;;;;5031282;28;20026;-62
2022/08/03 10:41:41;;;;;;;9.00;1.80;;;27.80;59.20;;;;;;5031688;28;20017;-61
2022/08/03 10:44:22;;;;;;;8.05;2.22;;;27.80;59.50;;;;;;5012472;28;20025;-61
2022/08/03 10:46:49;;;;;;;6.47;1.88;;;27.90;58.50;;;;;;5031020;28;20116;-65
2022/08/03 10:49:16;;;;;;;11.75;2.15;;;28.00;59.10;;;;;;5030590;28;20119;-62
2022/08/03 10:51:44;;;;;;;7.35;2.13;;;28.00;58.30;;;;;;5013519;28;20381;-61
2022/08/03 10:57:48;;;;;;;7.28;1.67;;;28.20;57.50;;;;;;5030876;28;20068;-62
2022/08/03 11:00:25;;;;;;;9.43;2.35;;;28.20;57.60;;;;;;5030875;28;20072;-62
2022/08/03 11:03:02;;;;;;;14.43;2.30;;;28.20;57.30;;;;;;5030832;28;20044;-62
2022/08/03 11:05:33;;;;;;;8.18;1.73;;;28.20;57.40;;;;;;5030604;28;20030;-66
2022/08/03 11:08:26;;;;;;;6.57;1.70;;;28.30;57.00;;;;;;5031251;28;20096;-76
2022/08/03 11:11:18;;;;;;;4.20;1.40;;;28.30;56.40;;;;;;5030270;28;20112;-75
2022/08/03 11:14:04;;;;;;;10.45;2.15;;;28.40;56.10;;;;;;5022936;28;20041;-73
2022/08/03 11:17:04;;;;;;;6.18;1.33;;;28.40;56.30;;;;;;5031259;28;20067;-74
2022/08/03 11:19:43;;;;;;;;;;;28.50;55.80;;;;;;5030662;28;20092;-75
2022/08/03 11:22:09;;;;;;;10.80;1.70;;;28.60;55.50;;;;;;5030597;28;20003;-74
2022/08/03 11:24:46;;;;;;;7.38;1.80;;;28.60;55.50;;;;;;5030445;28;20588;-72
2022/08/03 11:27:21;;;;;;;11.05;2.03;;;28.70;55.40;;;;;;5030966;28;20528;-69
2022/08/03 11:29:57;;;;;;;8.27;1.63;;;28.80;54.40;;;;;;5030982;28;20022;-68
2022/08/03 11:32:51;;;;;;;5.72;1.35;;;28.70;52.80;;;;;;5030151;28;20087;-75
2022/08/03 11:35:21;;;;;;;8.70;2.05;;;28.80;53.40;;;;;;5013046;28;20045;-74
2022/08/03 11:37:56;;;;;;;6.28;1.60;;;28.80;53.10;;;;;;5030665;28;20033;-74
2022/08/03 11:40:43;;;;;;;6.05;1.35;;;28.80;54.10;;;;;;5030030;28;20025;-74
2022/08/03 11:43:21;;;;;;;7.30;1.67;;;28.80;54.10;;;;;;5030380;28;20057;-74
2022/08/03 11:46:01;;;;;;;8.48;3.50;;;28.90;54.30;;;;;;5031838;28;20475;-72
2022/08/03 11:48:38;;;;;;;9.50;2.50;;;29.00;54.90;;;;;;5035247;28;20053;-74
2022/08/03 11:51:28;;;;;;;8.43;3.00;;;29.10;54.20;;;;;;5016554;28;20409;-70
2022/08/03 11:54:03;;;;;;;6.75;1.60;;;29.10;53.10;;;;;;5025916;28;20034;-67
2022/08/03 11:56:46;;;;;;;7.10;1.30;;;29.20;52.80;;;;;;5034569;28;20022;-67
2022/08/03 11:59:12;;;;;;;4.35;1.48;;;29.20;52.10;;;;;;5034726;28;20037;-70
2022/08/03 12:01:38;;;;;;;4.10;1.23;;;29.20;50.00;;;;;;5033846;28;20021;-70
2022/08/03 12:04:04;;;;;;;5.97;1.40;;;29.20;50.20;;;;;;5034216;28;20033;-69
2022/08/03 12:06:30;;;;;;;4.57;1.75;;;29.30;49.20;;;;;;5034046;28;20036;-68
2022/08/03 12:09:16;;;;;;;5.65;1.75;;;29.40;49.00;;;;;;5034072;28;20045;-72
2022/08/03 12:11:41;;;;;;;7.20;1.90;;;29.30;49.50;;;;;;5034642;28;20021;-70
2022/08/03 12:14:07;;;;;;;5.95;1.50;;;29.40;49.80;;;;;;5015598;28;20029;-72
2022/08/03 12:16:32;;;;;;;7.55;2.17;;;29.40;50.10;;;;;;5034348;28;20033;-69
2022/08/03 12:19:02;;;;;;;6.35;1.70;;;29.40;49.80;;;;;;5033705;28;20096;-75
2022/08/03 12:21:28;;;;;;;5.57;1.70;;;29.40;49.00;;;;;;5016114;28;20043;-67
2022/08/03 12:23:59;;;;;;;7.95;1.73;;;29.50;48.70;;;;;;5033839;28;20470;-71
2022/08/03 12:26:25;;;;;;;4.95;1.45;;;29.60;49.50;;;;;;5034087;28;20060;-63
2022/08/03 12:28:51;;;;;;;4.80;1.40;;;29.70;50.10;;;;;;5032849;28;20053;-62
2022/08/03 12:31:17;;;;;;;6.03;1.77;;;29.70;49.20;;;;;;5034266;28;20682;-65
2022/08/03 12:33:55;;;;;;;5.03;1.45;;;29.80;48.60;;;;;;5033497;28;20432;-62
2022/08/03 12:36:20;;;;;;;5.57;1.25;;;29.80;48.30;;;;;;5033283;28;20037;-63
2022/08/03 12:39:03;;;;;;;5.72;1.55;;;29.90;49.20;;;;;;5033613;28;20029;-63
2022/08/03 12:41:37;;;;;;;4.90;1.30;;;29.90;48.90;;;;;;5033835;28;20021;-62
2022/08/03 12:44:07;;;;;;;4.40;1.70;;;29.90;48.60;;;;;;5032795;28;20021;-63
2022/08/03 12:46:35;;;;;;;7.50;1.60;;;29.80;49.00;;;;;;5015985;28;20428;-64
2022/08/03 12:49:02;;;;;;;6.32;2.38;;;29.90;48.70;;;;;;5032640;28;20133;-62
2022/08/03 12:51:29;;;;;;;3.70;1.33;;;29.90;48.70;;;;;;5033567;28;20018;-63
2022/08/03 12:53:57;;;;;;;5.70;1.70;;;29.90;49.10;;;;;;5033269;28;20100;-63
2022/08/03 12:56:23;;;;;;;6.95;1.80;;;30.00;49.40;;;;;;5032305;28;20033;-64
2022/08/03 12:58:52;;;;;;;7.25;1.77;;;30.10;49.00;;;;;;5033115;28;20087;-63
2022/08/03 13:01:18;;;;;;;6.60;1.42;;;30.20;48.40;;;;;;5033372;28;20053;-62
2022/08/03 13:03:48;;;;;;;6.95;1.35;;;30.20;48.30;;;;;;5032858;28;20022;-62
2022/08/03 13:06:15;;;;;;;6.78;1.63;;;30.30;48.10;;;;;;5033541;28;20029;-62